sensor_id;sensor_type;location;lat;lon;timestamp;pressure;altitude;pressure_sealevel;temperature;humidity
16481;BME280;44634;54.110;12.138;2023-02-23T00:01:24;100884.28;;;7.41;100.00
16481;BME280;44634;54.110;12.138;2023-02-23T00:03:55;100895.50;;;7.67;100.00
16481;BME280;44634;54.110;12.138;2023-02-23T00:06:24;100876.78;;;7.59;100.00
16481;BME280;44634;54.110;12.138;2023-02-23T00:08:52;100878.25;;;7.63;100.00
16481;BME280;44634;54.110;12.138;2023-02-23T00:11:21;100881.19;;;7.23;100.00
16481;BME280;44634;54.110;12.138;2023-02-23T00:13:49;100862.50;;;7.85;100.00
16481;BME280;44634;54.110;12.138;2023-02-23T00:16:18;100873.75;;;7.52;100.00
16481;BME280;44634;54.110;12.138;2023-02-23T00:18:48;100871.13;;;7.52;100.00
16481;BME280;44634;54.110;12.138;2023-02-23T00:21:19;100870.06;;;7.43;100.00
16481;BME280;44634;54.110;12.138;2023-02-23T00:23:48;100852.88;;;7.27;100.00
16481;BME280;44634;54.110;12.138;2023-02-23T00:26:17;100852.34;;;7.10;100.00
16481;BME280;44634;54.110;12.138;2023-02-23T00:28:47;100849.34;;;7.39;100.00
16481;BME280;44634;54.110;12.138;2023-02-23T00:31:16;100851.03;;;7.40;100.00
16481;BME280;44634;54.110;12.138;2023-02-23T00:33:45;100856.63;;;7.70;100.00
16481;BME280;44634;54.110;12.138;2023-02-23T00:36:13;100862.44;;;7.63;100.00
16481;BME280;44634;54.110;12.138;2023-02-23T00:38:42;100864.94;;;7.53;100.00
16481;BME280;44634;54.110;12.138;2023-02-23T00:41:13;100853.50;;;7.30;100.00
16481;BME280;44634;54.110;12.138;2023-02-23T00:43:43;100850.47;;;7.59;100.00
16481;BME280;44634;54.110;12.138;2023-02-23T00:46:13;100854.09;;;7.69;100.00
16481;BME280;44634;54.110;12.138;2023-02-23T00:48:42;100868.16;;;7.22;100.00
16481;BME280;44634;54.110;12.138;2023-02-23T00:51:11;100848.13;;;7.32;100.00
16481;BME280;44634;54.110;12.138;2023-02-23T00:53:39;100836.09;;;7.40;100.00
16481;BME280;44634;54.110;12.138;2023-02-23T00:56:10;100856.97;;;7.31;100.00
16481;BME280;44634;54.110;12.138;2023-02-23T00:58:38;100840.00;;;7.35;100.00
16481;BME280;44634;54.110;12.138;2023-02-23T01:01:07;100837.97;;;7.73;100.00
16481;BME280;44634;54.110;12.138;2023-02-23T01:03:37;100841.56;;;7.37;100.00
16481;BME280;44634;54.110;12.138;2023-02-23T01:06:07;100840.69;;;7.61;100.00
16481;BME280;44634;54.110;12.138;2023-02-23T01:08:37;100845.56;;;6.95;100.00
16481;BME280;44634;54.110;12.138;2023-02-23T01:11:06;100848.41;;;7.16;100.00
16481;BME280;44634;54.110;12.138;2023-02-23T01:13:36;100838.72;;;7.52;100.00
16481;BME280;44634;54.110;12.138;2023-02-23T01:16:05;100832.94;;;7.35;100.00
16481;BME280;44634;54.110;12.138;2023-02-23T01:18:34;100844.88;;;7.28;100.00
16481;BME280;44634;54.110;12.138;2023-02-23T01:21:03;100853.06;;;7.47;100.00
16481;BME280;44634;54.110;12.138;2023-02-23T01:23:32;100851.22;;;7.26;100.00
16481;BME280;44634;54.110;12.138;2023-02-23T01:25:59;100851.88;;;7.16;100.00
16481;BME280;44634;54.110;12.138;2023-02-23T01:28:27;100844.09;;;7.15;100.00
16481;BME280;44634;54.110;12.138;2023-02-23T01:30:56;100856.13;;;7.30;100.00
16481;BME280;44634;54.110;12.138;2023-02-23T01:33:24;100844.25;;;7.60;100.00
16481;BME280;44634;54.110;12.138;2023-02-23T01:35:58;100844.47;;;7.22;100.00
16481;BME280;44634;54.110;12.138;2023-02-23T01:38:25;100847.75;;;7.01;100.00
16481;BME280;44634;54.110;12.138;2023-02-23T01:40:53;100839.19;;;7.10;100.00
16481;BME280;44634;54.110;12.138;2023-02-23T01:43:21;100826.09;;;6.98;100.00
16481;BME280;44634;54.110;12.138;2023-02-23T01:45:53;100816.88;;;7.16;100.00
16481;BME280;44634;54.110;12.138;2023-02-23T01:48:26;100819.91;;;7.34;100.00
16481;BME280;44634;54.110;12.138;2023-02-23T01:51:01;100821.34;;;7.03;100.00
16481;BME280;44634;54.110;12.138;2023-02-23T01:53:33;100810.22;;;7.34;100.00
16481;BME280;44634;54.110;12.138;2023-02-23T01:56:07;100822.81;;;7.42;100.00
16481;BME280;44634;54.110;12.138;2023-02-23T01:58:37;100819.13;;;7.21;100.00
16481;BME280;44634;54.110;12.138;2023-02-23T02:01:06;100826.25;;;7.31;100.00
16481;BME280;44634;54.110;12.138;2023-02-23T02:03:37;100818.31;;;7.20;100.00
16481;BME280;44634;54.110;12.138;2023-02-23T02:06:09;100822.59;;;7.21;100.00
16481;BME280;44634;54.110;12.138;2023-02-23T02:08:41;100821.06;;;7.19;100.00
16481;BME280;44634;54.110;12.138;2023-02-23T02:11:12;100797.75;;;6.90;100.00
16481;BME280;44634;54.110;12.138;2023-02-23T02:13:53;100797.97;;;7.11;100.00
16481;BME280;44634;54.110;12.138;2023-02-23T02:16:41;100787.88;;;7.05;100.00
16481;BME280;44634;54.110;12.138;2023-02-23T02:19:36;100780.78;;;7.18;100.00
16481;BME280;44634;54.110;12.138;2023-02-23T02:22:28;100784.53;;;7.03;100.00
16481;BME280;44634;54.110;12.138;2023-02-23T02:25:40;100819.16;;;7.56;100.00
16481;BME280;44634;54.110;12.138;2023-02-23T02:28:37;100795.06;;;7.03;100.00
16481;BME280;44634;54.110;12.138;2023-02-23T02:31:36;100778.84;;;7.20;100.00
16481;BME280;44634;54.110;12.138;2023-02-23T02:37:23;100797.13;;;7.10;100.00
16481;BME280;44634;54.110;12.138;2023-02-23T02:39:58;100794.41;;;6.88;100.00
16481;BME280;44634;54.110;12.138;2023-02-23T02:42:58;100787.34;;;6.89;100.00
16481;BME280;44634;54.110;12.138;2023-02-23T02:45:32;100767.56;;;6.96;100.00
16481;BME280;44634;54.110;12.138;2023-02-23T02:48:05;100769.28;;;6.84;100.00
16481;BME280;44634;54.110;12.138;2023-02-23T02:50:42;100743.16;;;6.94;100.00
16481;BME280;44634;54.110;12.138;2023-02-23T02:53:17;100741.16;;;6.73;100.00
16481;BME280;44634;54.110;12.138;2023-02-23T02:55:49;100749.09;;;6.84;100.00
16481;BME280;44634;54.110;12.138;2023-02-23T02:58:18;100736.56;;;6.64;100.00
16481;BME280;44634;54.110;12.138;2023-02-23T03:00:47;100739.78;;;6.80;100.00
16481;BME280;44634;54.110;12.138;2023-02-23T03:03:36;100763.97;;;6.97;100.00
16481;BME280;44634;54.110;12.138;2023-02-23T03:06:25;100761.59;;;7.05;100.00
16481;BME280;44634;54.110;12.138;2023-02-23T03:09:20;100768.78;;;6.79;100.00
16481;BME280;44634;54.110;12.138;2023-02-23T03:12:09;100747.38;;;6.72;100.00
16481;BME280;44634;54.110;12.138;2023-02-23T03:15:03;100746.38;;;6.86;100.00
16481;BME280;44634;54.110;12.138;2023-02-23T03:17:57;100731.38;;;6.75;100.00
16481;BME280;44634;54.110;12.138;2023-02-23T03:20:46;100736.16;;;6.70;100.00
16481;BME280;44634;54.110;12.138;2023-02-23T03:23:41;100721.94;;;6.73;100.00
16481;BME280;44634;54.110;12.138;2023-02-23T03:26:38;100731.19;;;6.90;100.00
16481;BME280;44634;54.110;12.138;2023-02-23T03:29:30;100746.03;;;7.26;100.00
16481;BME280;44634;54.110;12.138;2023-02-23T03:32:21;100750.84;;;6.73;100.00
16481;BME280;44634;54.110;12.138;2023-02-23T03:35:12;100737.94;;;7.05;100.00
16481;BME280;44634;54.110;12.138;2023-02-23T03:38:05;100736.03;;;7.07;100.00
16481;BME280;44634;54.110;12.138;2023-02-23T03:40:54;100734.66;;;6.55;100.00
16481;BME280;44634;54.110;12.138;2023-02-23T03:43:46;100714.22;;;6.82;100.00
16481;BME280;44634;54.110;12.138;2023-02-23T03:46:34;100722.53;;;6.76;100.00
16481;BME280;44634;54.110;12.138;2023-02-23T03:49:20;100729.94;;;6.23;100.00
16481;BME280;44634;54.110;12.138;2023-02-23T03:52:12;100709.69;;;6.61;100.00
16481;BME280;44634;54.110;12.138;2023-02-23T03:55:02;100699.19;;;6.84;100.00
16481;BME280;44634;54.110;12.138;2023-02-23T03:57:50;100709.81;;;6.83;100.00
16481;BME280;44634;54.110;12.138;2023-02-23T04:00:43;100731.16;;;6.78;100.00
16481;BME280;44634;54.110;12.138;2023-02-23T04:03:31;100741.13;;;7.32;100.00
16481;BME280;44634;54.110;12.138;2023-02-23T04:06:19;100764.34;;;7.03;100.00
16481;BME280;44634;54.110;12.138;2023-02-23T04:09:07;100737.38;;;6.53;100.00
16481;BME280;44634;54.110;12.138;2023-02-23T04:11:57;100708.31;;;6.44;100.00
16481;BME280;44634;54.110;12.138;2023-02-23T04:14:52;100703.53;;;6.73;100.00
16481;BME280;44634;54.110;12.138;2023-02-23T04:17:23;100701.22;;;6.57;100.00
16481;BME280;44634;54.110;12.138;2023-02-23T04:19:57;100700.88;;;6.38;100.00
16481;BME280;44634;54.110;12.138;2023-02-23T04:22:25;100696.59;;;7.07;100.00
16481;BME280;44634;54.110;12.138;2023-02-23T04:24:53;100725.72;;;6.93;100.00
16481;BME280;44634;54.110;12.138;2023-02-23T04:27:20;100744.84;;;6.95;100.00
16481;BME280;44634;54.110;12.138;2023-02-23T04:29:48;100756.22;;;7.06;100.00
16481;BME280;44634;54.110;12.138;2023-02-23T04:32:18;100766.13;;;7.38;100.00
16481;BME280;44634;54.110;12.138;2023-02-23T04:34:47;100754.72;;;7.15;100.00
16481;BME280;44634;54.110;12.138;2023-02-23T04:37:15;100763.25;;;6.95;100.00
16481;BME280;44634;54.110;12.138;2023-02-23T04:39:43;100757.13;;;6.94;100.00
16481;BME280;44634;54.110;12.138;2023-02-23T04:42:15;100757.09;;;7.18;100.00
16481;BME280;44634;54.110;12.138;2023-02-23T04:44:43;100772.03;;;7.18;100.00
16481;BME280;44634;54.110;12.138;2023-02-23T04:47:11;100765.59;;;7.22;100.00
16481;BME280;44634;54.110;12.138;2023-02-23T04:49:38;100772.28;;;7.14;100.00
16481;BME280;44634;54.110;12.138;2023-02-23T04:52:08;100774.34;;;7.33;100.00
16481;BME280;44634;54.110;12.138;2023-02-23T04:54:36;100790.97;;;6.99;100.00
16481;BME280;44634;54.110;12.138;2023-02-23T04:57:05;100789.38;;;7.09;100.00
16481;BME280;44634;54.110;12.138;2023-02-23T04:59:33;100771.75;;;6.98;100.00
16481;BME280;44634;54.110;12.138;2023-02-23T05:02:00;100761.81;;;6.67;100.00
16481;BME280;44634;54.110;12.138;2023-02-23T05:04:28;100747.19;;;6.86;100.00
16481;BME280;44634;54.110;12.138;2023-02-23T05:06:56;100750.13;;;7.06;100.00
16481;BME280;44634;54.110;12.138;2023-02-23T05:09:26;100755.63;;;6.79;100.00
16481;BME280;44634;54.110;12.138;2023-02-23T05:11:53;100753.56;;;7.30;100.00
16481;BME280;44634;54.110;12.138;2023-02-23T05:14:21;100757.22;;;7.16;100.00
16481;BME280;44634;54.110;12.138;2023-02-23T05:16:49;100756.38;;;6.57;100.00
16481;BME280;44634;54.110;12.138;2023-02-23T05:19:18;100746.00;;;7.14;100.00
16481;BME280;44634;54.110;12.138;2023-02-23T05:21:45;100754.81;;;7.13;100.00
16481;BME280;44634;54.110;12.138;2023-02-23T05:24:16;100767.91;;;7.26;100.00
16481;BME280;44634;54.110;12.138;2023-02-23T05:26:45;100758.19;;;7.15;100.00
16481;BME280;44634;54.110;12.138;2023-02-23T05:29:13;100759.88;;;6.93;100.00
16481;BME280;44634;54.110;12.138;2023-02-23T05:31:41;100738.06;;;6.68;100.00
16481;BME280;44634;54.110;12.138;2023-02-23T05:34:09;100736.16;;;7.05;100.00
16481;BME280;44634;54.110;12.138;2023-02-23T05:36:37;100742.13;;;6.72;100.00
16481;BME280;44634;54.110;12.138;2023-02-23T05:39:05;100746.22;;;7.11;100.00
16481;BME280;44634;54.110;12.138;2023-02-23T05:41:33;100749.56;;;7.13;100.00
16481;BME280;44634;54.110;12.138;2023-02-23T05:44:02;100751.91;;;7.05;100.00
16481;BME280;44634;54.110;12.138;2023-02-23T05:46:30;100757.09;;;6.83;100.00
16481;BME280;44634;54.110;12.138;2023-02-23T05:48:59;100746.72;;;6.81;100.00
16481;BME280;44634;54.110;12.138;2023-02-23T05:51:28;100730.09;;;6.33;100.00
16481;BME280;44634;54.110;12.138;2023-02-23T05:53:57;100725.41;;;7.08;100.00
16481;BME280;44634;54.110;12.138;2023-02-23T05:56:25;100752.88;;;7.04;100.00
16481;BME280;44634;54.110;12.138;2023-02-23T05:58:54;100758.19;;;7.15;100.00
16481;BME280;44634;54.110;12.138;2023-02-23T06:01:25;100758.84;;;6.95;100.00
16481;BME280;44634;54.110;12.138;2023-02-23T06:03:53;100756.38;;;7.16;100.00
16481;BME280;44634;54.110;12.138;2023-02-23T06:06:21;100769.81;;;7.24;100.00
16481;BME280;44634;54.110;12.138;2023-02-23T06:08:51;100771.44;;;7.14;100.00
16481;BME280;44634;54.110;12.138;2023-02-23T06:11:19;100761.53;;;7.18;100.00
16481;BME280;44634;54.110;12.138;2023-02-23T06:13:47;100755.28;;;7.07;100.00
16481;BME280;44634;54.110;12.138;2023-02-23T06:16:15;100759.78;;;7.29;100.00
16481;BME280;44634;54.110;12.138;2023-02-23T06:18:44;100758.19;;;7.15;100.00
16481;BME280;44634;54.110;12.138;2023-02-23T06:21:12;100755.63;;;7.03;100.00
16481;BME280;44634;54.110;12.138;2023-02-23T06:23:40;100758.41;;;7.12;100.00
16481;BME280;44634;54.110;12.138;2023-02-23T06:26:08;100764.19;;;6.94;100.00
16481;BME280;44634;54.110;12.138;2023-02-23T06:28:35;100763.16;;;7.07;100.00
16481;BME280;44634;54.110;12.138;2023-02-23T06:31:03;100784.56;;;7.49;100.00
16481;BME280;44634;54.110;12.138;2023-02-23T06:33:32;100770.78;;;7.34;100.00
16481;BME280;44634;54.110;12.138;2023-02-23T06:36:01;100773.34;;;7.12;100.00
16481;BME280;44634;54.110;12.138;2023-02-23T06:38:29;100770.91;;;6.98;100.00
16481;BME280;44634;54.110;12.138;2023-02-23T06:40:57;100767.66;;;6.94;100.00
16481;BME280;44634;54.110;12.138;2023-02-23T06:43:24;100791.53;;;7.61;100.00
16481;BME280;44634;54.110;12.138;2023-02-23T06:45:52;100787.34;;;7.12;100.00
16481;BME280;44634;54.110;12.138;2023-02-23T06:48:21;100785.88;;;7.08;100.00
16481;BME280;44634;54.110;12.138;2023-02-23T06:50:48;100764.53;;;6.89;100.00
16481;BME280;44634;54.110;12.138;2023-02-23T06:53:18;100748.28;;;6.60;100.00
16481;BME280;44634;54.110;12.138;2023-02-23T06:55:45;100741.72;;;6.42;100.00
16481;BME280;44634;54.110;12.138;2023-02-23T06:58:13;100722.84;;;6.84;100.00
16481;BME280;44634;54.110;12.138;2023-02-23T07:00:41;100730.56;;;6.51;100.00
16481;BME280;44634;54.110;12.138;2023-02-23T07:03:09;100734.00;;;6.75;100.00
16481;BME280;44634;54.110;12.138;2023-02-23T07:05:37;100736.06;;;7.18;100.00
16481;BME280;44634;54.110;12.138;2023-02-23T07:08:04;100767.09;;;7.02;100.00
16481;BME280;44634;54.110;12.138;2023-02-23T07:10:33;100754.75;;;7.26;100.00
16481;BME280;44634;54.110;12.138;2023-02-23T07:13:01;100785.47;;;7.37;100.00
16481;BME280;44634;54.110;12.138;2023-02-23T07:15:29;100781.53;;;7.31;100.00
16481;BME280;44634;54.110;12.138;2023-02-23T07:17:57;100783.34;;;7.07;100.00
16481;BME280;44634;54.110;12.138;2023-02-23T07:20:24;100788.63;;;7.42;100.00
16481;BME280;44634;54.110;12.138;2023-02-23T07:22:52;100804.00;;;7.70;100.00
16481;BME280;44634;54.110;12.138;2023-02-23T07:25:20;100823.28;;;7.82;100.00
16481;BME280;44634;54.110;12.138;2023-02-23T07:27:49;100850.78;;;7.89;100.00
16481;BME280;44634;54.110;12.138;2023-02-23T07:30:17;100854.84;;;7.82;100.00
16481;BME280;44634;54.110;12.138;2023-02-23T07:32:45;100867.22;;;8.15;100.00
16481;BME280;44634;54.110;12.138;2023-02-23T07:35:13;100896.59;;;8.55;100.00
16481;BME280;44634;54.110;12.138;2023-02-23T07:37:40;100905.88;;;9.04;100.00
16481;BME280;44634;54.110;12.138;2023-02-23T07:40:09;100923.44;;;8.83;100.00
16481;BME280;44634;54.110;12.138;2023-02-23T07:42:37;100941.16;;;8.47;100.00
16481;BME280;44634;54.110;12.138;2023-02-23T07:45:08;100918.38;;;8.35;100.00
16481;BME280;44634;54.110;12.138;2023-02-23T07:47:36;100930.75;;;7.99;100.00
16481;BME280;44634;54.110;12.138;2023-02-23T07:50:06;100918.13;;;8.27;100.00
16481;BME280;44634;54.110;12.138;2023-02-23T07:52:36;100911.06;;;8.39;100.00
16481;BME280;44634;54.110;12.138;2023-02-23T07:55:06;100921.91;;;7.65;100.00
16481;BME280;44634;54.110;12.138;2023-02-23T07:57:34;100877.91;;;8.58;100.00
16481;BME280;44634;54.110;12.138;2023-02-23T08:00:03;100903.25;;;8.15;100.00
16481;BME280;44634;54.110;12.138;2023-02-23T08:02:32;100873.25;;;8.40;100.00
16481;BME280;44634;54.110;12.138;2023-02-23T08:05:00;100868.88;;;8.05;100.00
16481;BME280;44634;54.110;12.138;2023-02-23T08:07:30;100899.00;;;7.90;100.00
16481;BME280;44634;54.110;12.138;2023-02-23T08:09:58;100896.63;;;8.09;100.00
16481;BME280;44634;54.110;12.138;2023-02-23T08:12:26;100916.31;;;8.27;100.00
16481;BME280;44634;54.110;12.138;2023-02-23T08:14:54;100895.47;;;8.91;100.00
16481;BME280;44634;54.110;12.138;2023-02-23T08:17:22;100917.25;;;9.16;100.00
16481;BME280;44634;54.110;12.138;2023-02-23T08:19:51;100946.94;;;8.17;100.00
16481;BME280;44634;54.110;12.138;2023-02-23T08:22:18;100924.16;;;8.74;100.00
16481;BME280;44634;54.110;12.138;2023-02-23T08:24:46;100959.25;;;8.74;100.00
16481;BME280;44634;54.110;12.138;2023-02-23T08:27:14;100964.63;;;8.61;100.00
16481;BME280;44634;54.110;12.138;2023-02-23T08:29:42;100938.50;;;7.90;100.00
16481;BME280;44634;54.110;12.138;2023-02-23T08:32:10;100922.72;;;7.90;100.00
16481;BME280;44634;54.110;12.138;2023-02-23T08:34:38;100901.13;;;8.76;100.00
16481;BME280;44634;54.110;12.138;2023-02-23T08:37:08;100900.03;;;8.11;100.00
16481;BME280;44634;54.110;12.138;2023-02-23T08:39:36;100888.56;;;8.46;100.00
16481;BME280;44634;54.110;12.138;2023-02-23T08:42:04;100910.84;;;8.86;100.00
16481;BME280;44634;54.110;12.138;2023-02-23T08:44:31;100935.16;;;9.01;100.00
16481;BME280;44634;54.110;12.138;2023-02-23T08:46:59;100956.25;;;8.79;100.00
16481;BME280;44634;54.110;12.138;2023-02-23T08:49:29;100933.66;;;9.19;100.00
16481;BME280;44634;54.110;12.138;2023-02-23T08:51:58;100980.56;;;9.05;100.00
16481;BME280;44634;54.110;12.138;2023-02-23T08:54:27;100994.72;;;9.15;100.00
16481;BME280;44634;54.110;12.138;2023-02-23T08:56:55;100983.00;;;9.40;100.00
16481;BME280;44634;54.110;12.138;2023-02-23T08:59:25;101013.06;;;9.16;100.00
16481;BME280;44634;54.110;12.138;2023-02-23T09:01:53;100989.19;;;9.18;100.00
16481;BME280;44634;54.110;12.138;2023-02-23T09:04:21;100971.44;;;9.09;100.00
16481;BME280;44634;54.110;12.138;2023-02-23T09:06:49;100992.25;;;9.77;100.00
16481;BME280;44634;54.110;12.138;2023-02-23T09:09:17;101007.31;;;9.66;100.00
16481;BME280;44634;54.110;12.138;2023-02-23T09:11:46;101018.66;;;9.45;100.00
16481;BME280;44634;54.110;12.138;2023-02-23T09:14:13;100975.69;;;10.07;100.00
16481;BME280;44634;54.110;12.138;2023-02-23T09:16:41;100989.66;;;10.19;100.00
16481;BME280;44634;54.110;12.138;2023-02-23T09:19:10;100995.28;;;9.41;100.00
16481;BME280;44634;54.110;12.138;2023-02-23T09:21:38;100985.56;;;9.30;100.00
16481;BME280;44634;54.110;12.138;2023-02-23T09:24:06;100973.41;;;9.39;100.00
16481;BME280;44634;54.110;12.138;2023-02-23T09:26:33;100948.38;;;9.65;100.00
16481;BME280;44634;54.110;12.138;2023-02-23T09:29:07;100958.78;;;9.78;100.00
16481;BME280;44634;54.110;12.138;2023-02-23T09:31:34;100938.41;;;9.37;100.00
16481;BME280;44634;54.110;12.138;2023-02-23T09:34:02;100948.69;;;9.40;100.00
16481;BME280;44634;54.110;12.138;2023-02-23T09:36:30;100948.97;;;10.22;100.00
16481;BME280;44634;54.110;12.138;2023-02-23T09:38:58;100976.47;;;10.19;100.00
16481;BME280;44634;54.110;12.138;2023-02-23T09:44:31;100978.84;;;10.64;100.00
16481;BME280;44634;54.110;12.138;2023-02-23T09:47:12;101008.53;;;10.47;100.00
16481;BME280;44634;54.110;12.138;2023-02-23T09:49:46;101017.38;;;10.66;100.00
16481;BME280;44634;54.110;12.138;2023-02-23T09:52:17;100994.09;;;10.30;100.00
16481;BME280;44634;54.110;12.138;2023-02-23T09:54:45;100960.16;;;10.14;100.00
16481;BME280;44634;54.110;12.138;2023-02-23T09:57:16;100955.19;;;10.21;100.00
16481;BME280;44634;54.110;12.138;2023-02-23T09:59:46;100983.19;;;11.05;100.00
16481;BME280;44634;54.110;12.138;2023-02-23T10:02:22;101004.44;;;11.34;100.00
16481;BME280;44634;54.110;12.138;2023-02-23T10:04:53;101029.56;;;11.69;100.00
16481;BME280;44634;54.110;12.138;2023-02-23T10:07:27;101020.13;;;11.26;100.00
16481;BME280;44634;54.110;12.138;2023-02-23T10:10:15;101025.56;;;11.74;100.00
16481;BME280;44634;54.110;12.138;2023-02-23T10:12:51;101036.75;;;11.38;100.00
16481;BME280;44634;54.110;12.138;2023-02-23T10:15:29;101040.94;;;11.40;100.00
16481;BME280;44634;54.110;12.138;2023-02-23T10:18:11;101001.38;;;11.29;100.00
16481;BME280;44634;54.110;12.138;2023-02-23T10:20:46;100982.84;;;11.39;100.00
16481;BME280;44634;54.110;12.138;2023-02-23T10:23:21;100976.16;;;11.35;100.00
16481;BME280;44634;54.110;12.138;2023-02-23T10:25:50;100972.88;;;11.02;100.00
16481;BME280;44634;54.110;12.138;2023-02-23T10:28:21;100974.34;;;11.54;100.00
16481;BME280;44634;54.110;12.138;2023-02-23T10:30:51;100983.69;;;10.99;100.00
16481;BME280;44634;54.110;12.138;2023-02-23T10:33:23;100971.53;;;11.27;100.00
16481;BME280;44634;54.110;12.138;2023-02-23T10:35:57;100972.19;;;11.10;100.00
16481;BME280;44634;54.110;12.138;2023-02-23T10:38:38;100970.03;;;10.94;100.00
16481;BME280;44634;54.110;12.138;2023-02-23T10:41:07;100980.69;;;11.13;100.00
16481;BME280;44634;54.110;12.138;2023-02-23T10:43:39;100979.13;;;11.60;100.00
16481;BME280;44634;54.110;12.138;2023-02-23T10:46:16;100989.06;;;11.87;100.00
16481;BME280;44634;54.110;12.138;2023-02-23T10:48:46;100989.97;;;10.98;100.00
16481;BME280;44634;54.110;12.138;2023-02-23T10:51:17;100977.56;;;11.48;100.00
16481;BME280;44634;54.110;12.138;2023-02-23T10:53:46;100963.03;;;11.23;100.00
16481;BME280;44634;54.110;12.138;2023-02-23T10:56:16;100938.81;;;10.78;100.00
16481;BME280;44634;54.110;12.138;2023-02-23T10:58:46;100948.59;;;11.47;100.00
16481;BME280;44634;54.110;12.138;2023-02-23T11:01:32;100935.69;;;10.63;100.00
16481;BME280;44634;54.110;12.138;2023-02-23T11:04:12;100901.88;;;11.36;100.00
16481;BME280;44634;54.110;12.138;2023-02-23T11:06:42;100877.66;;;10.62;100.00
16481;BME280;44634;54.110;12.138;2023-02-23T11:09:21;100906.91;;;11.68;100.00
16481;BME280;44634;54.110;12.138;2023-02-23T11:12:15;100925.47;;;11.87;100.00
16481;BME280;44634;54.110;12.138;2023-02-23T11:14:47;100943.16;;;11.77;100.00
16481;BME280;44634;54.110;12.138;2023-02-23T11:17:28;100918.59;;;11.37;100.00
16481;BME280;44634;54.110;12.138;2023-02-23T11:19:58;100893.25;;;11.92;100.00
16481;BME280;44634;54.110;12.138;2023-02-23T11:22:31;100939.03;;;12.41;100.00
16481;BME280;44634;54.110;12.138;2023-02-23T11:25:01;100945.13;;;12.04;100.00
16481;BME280;44634;54.110;12.138;2023-02-23T11:27:32;100964.31;;;12.35;100.00
16481;BME280;44634;54.110;12.138;2023-02-23T11:30:04;100976.41;;;12.85;100.00
16481;BME280;44634;54.110;12.138;2023-02-23T11:32:34;101006.88;;;12.14;100.00
16481;BME280;44634;54.110;12.138;2023-02-23T11:35:13;100937.88;;;11.87;100.00
16481;BME280;44634;54.110;12.138;2023-02-23T11:37:53;100940.78;;;11.45;100.00
16481;BME280;44634;54.110;12.138;2023-02-23T11:40:23;100941.16;;;12.28;100.00
16481;BME280;44634;54.110;12.138;2023-02-23T11:42:53;100933.88;;;12.39;100.00
16481;BME280;44634;54.110;12.138;2023-02-23T11:45:23;100935.06;;;11.98;100.00
16481;BME280;44634;54.110;12.138;2023-02-23T11:47:55;100898.97;;;11.29;100.00
16481;BME280;44634;54.110;12.138;2023-02-23T11:50:28;100859.06;;;11.99;100.00
16481;BME280;44634;54.110;12.138;2023-02-23T11:53:03;100846.59;;;12.18;100.00
16481;BME280;44634;54.110;12.138;2023-02-23T11:55:32;100843.88;;;11.91;100.00
16481;BME280;44634;54.110;12.138;2023-02-23T11:58:07;100811.25;;;11.71;100.00
16481;BME280;44634;54.110;12.138;2023-02-23T12:00:36;100782.31;;;11.60;100.00
16481;BME280;44634;54.110;12.138;2023-02-23T12:03:06;100745.13;;;11.42;100.00
16481;BME280;44634;54.110;12.138;2023-02-23T12:05:34;100744.56;;;11.95;100.00
16481;BME280;44634;54.110;12.138;2023-02-23T12:08:03;100773.50;;;12.16;100.00
16481;BME280;44634;54.110;12.138;2023-02-23T12:10:36;100773.84;;;12.03;100.00
16481;BME280;44634;54.110;12.138;2023-02-23T12:13:15;100758.56;;;11.87;100.00
16481;BME280;44634;54.110;12.138;2023-02-23T12:15:51;100741.34;;;12.01;100.00
16481;BME280;44634;54.110;12.138;2023-02-23T12:18:35;100737.75;;;11.46;100.00
16481;BME280;44634;54.110;12.138;2023-02-23T12:21:14;100726.66;;;11.79;100.00
16481;BME280;44634;54.110;12.138;2023-02-23T12:23:47;100710.84;;;11.50;100.00
16481;BME280;44634;54.110;12.138;2023-02-23T12:26:20;100706.59;;;11.67;100.00
16481;BME280;44634;54.110;12.138;2023-02-23T12:28:53;100696.13;;;11.75;100.00
16481;BME280;44634;54.110;12.138;2023-02-23T12:31:27;100699.38;;;11.97;100.00
16481;BME280;44634;54.110;12.138;2023-02-23T12:34:01;100712.25;;;11.91;100.00
16481;BME280;44634;54.110;12.138;2023-02-23T12:36:36;100714.69;;;11.56;100.00
16481;BME280;44634;54.110;12.138;2023-02-23T12:39:14;100690.09;;;12.10;100.00
16481;BME280;44634;54.110;12.138;2023-02-23T12:41:47;100695.25;;;12.12;100.00
16481;BME280;44634;54.110;12.138;2023-02-23T12:44:30;100699.41;;;12.14;100.00
16481;BME280;44634;54.110;12.138;2023-02-23T12:47:05;100713.75;;;11.94;100.00
16481;BME280;44634;54.110;12.138;2023-02-23T12:49:39;100700.59;;;12.30;100.00
16481;BME280;44634;54.110;12.138;2023-02-23T12:52:12;100718.00;;;11.87;100.00
16481;BME280;44634;54.110;12.138;2023-02-23T12:54:43;100683.00;;;11.83;100.00
16481;BME280;44634;54.110;12.138;2023-02-23T12:57:20;100709.63;;;11.82;100.00
16481;BME280;44634;54.110;12.138;2023-02-23T12:59:59;100683.13;;;11.82;100.00
16481;BME280;44634;54.110;12.138;2023-02-23T13:02:48;100665.50;;;11.63;100.00
16481;BME280;44634;54.110;12.138;2023-02-23T13:05:25;100632.00;;;11.99;100.00
16481;BME280;44634;54.110;12.138;2023-02-23T13:08:01;100672.66;;;12.35;100.00
16481;BME280;44634;54.110;12.138;2023-02-23T13:10:45;100683.00;;;12.29;100.00
16481;BME280;44634;54.110;12.138;2023-02-23T13:13:26;100691.72;;;11.94;100.00